createdAt,value
2023-04-06T00:00:38.872Z,25.00
2023-04-06T00:01:38.851Z,25.00
2023-04-06T00:02:38.877Z,25.00
2023-04-06T00:03:38.919Z,0.00
2023-04-06T00:04:38.833Z,0.00
2023-04-06T00:05:38.831Z,0.00
2023-04-06T00:06:38.821Z,0.00
2023-04-06T00:07:38.812Z,0.00
2023-04-06T00:08:38.809Z,0.00
2023-04-06T00:09:38.812Z,0.00
2023-04-06T00:10:38.812Z,20.56
2023-04-06T00:11:38.809Z,25.00
2023-04-06T00:12:38.884Z,26.38
2023-04-06T00:13:38.843Z,25.20
2023-04-06T00:14:38.857Z,26.39
2023-04-06T00:15:38.905Z,25.18
2023-04-06T00:16:38.993Z,26.17
2023-04-06T00:17:39.045Z,29.87
2023-04-06T00:18:39.063Z,29.83
2023-04-06T00:19:39.115Z,25.00
2023-04-06T00:20:40.109Z,27.02
2023-04-06T00:21:38.243Z,25.28
2023-04-06T00:22:39.156Z,26.15
2023-04-06T00:23:39.156Z,25.63
2023-04-06T00:24:39.153Z,25.23
2023-04-06T00:25:39.151Z,26.96
2023-04-06T00:26:39.160Z,25.00
2023-04-06T00:27:39.153Z,27.53
2023-04-06T00:28:39.142Z,25.00
2023-04-06T00:29:39.164Z,27.31
2023-04-06T00:30:39.138Z,25.34
2023-04-06T00:31:39.173Z,27.89
2023-04-06T00:32:39.206Z,28.87
2023-04-06T00:33:39.131Z,30.36
2023-04-06T00:34:39.142Z,26.53
2023-04-06T00:35:39.147Z,25.70
2023-04-06T00:36:39.125Z,27.00
2023-04-06T00:37:39.150Z,27.94
2023-04-06T00:38:39.140Z,28.45
2023-04-06T00:39:39.109Z,28.52
2023-04-06T00:40:39.100Z,26.49
2023-04-06T00:41:39.100Z,28.38
2023-04-06T00:42:39.107Z,26.57
2023-04-06T00:43:39.103Z,27.37
2023-04-06T00:44:39.135Z,27.60
2023-04-06T00:45:39.169Z,25.00
2023-04-06T00:46:39.109Z,26.83
2023-04-06T00:47:39.166Z,26.40
2023-04-06T00:48:39.104Z,26.48
2023-04-06T00:49:39.102Z,27.10
2023-04-06T00:50:39.112Z,26.18
2023-04-06T00:51:39.126Z,26.69
2023-04-06T00:52:39.182Z,28.93
2023-04-06T00:53:39.232Z,27.42
2023-04-06T00:54:39.291Z,26.16
2023-04-06T00:55:39.332Z,26.32
2023-04-06T00:56:39.378Z,28.02
2023-04-06T00:58:57.377Z,25.00
2023-04-06T00:59:58.413Z,25.00
2023-04-06T01:00:58.443Z,25.00
2023-04-06T01:01:58.522Z,25.00
2023-04-06T01:02:58.464Z,25.00
2023-04-06T01:03:58.454Z,26.33
2023-04-06T01:04:58.504Z,25.85
2023-04-06T01:05:58.469Z,25.97
2023-04-06T01:06:58.489Z,25.17
2023-04-06T01:07:58.486Z,26.38
2023-04-06T01:08:58.538Z,27.64
2023-04-06T01:09:58.502Z,26.94
2023-04-06T01:10:58.519Z,26.98
2023-04-06T01:11:58.517Z,26.79
2023-04-06T01:12:58.534Z,26.15
2023-04-06T01:13:58.543Z,27.57
2023-04-06T01:14:58.544Z,28.51
2023-04-06T01:15:58.692Z,25.00
2023-04-06T01:16:58.598Z,26.64
2023-04-06T01:17:58.588Z,26.89
2023-04-06T01:18:58.577Z,27.55
2023-04-06T01:19:58.581Z,28.81
2023-04-06T01:20:58.588Z,25.27
2023-04-06T01:21:58.600Z,29.12
2023-04-06T01:22:58.605Z,27.74
2023-04-06T01:23:58.621Z,25.37
2023-04-06T01:24:58.623Z,27.60
2023-04-06T01:25:58.642Z,28.30
2023-04-06T01:26:58.681Z,27.84
2023-04-06T01:27:58.639Z,27.32
2023-04-06T01:28:58.660Z,28.41
2023-04-06T01:29:58.651Z,25.66
2023-04-06T01:30:58.692Z,27.89
2023-04-06T01:31:58.735Z,26.87
2023-04-06T01:32:58.740Z,30.12
2023-04-06T01:33:58.683Z,26.92
2023-04-06T01:34:58.709Z,29.41
2023-04-06T01:35:58.808Z,28.99
2023-04-06T01:36:58.806Z,26.71
2023-04-06T01:37:58.866Z,26.16
2023-04-06T01:38:58.909Z,26.31
2023-04-06T01:39:58.953Z,27.70
2023-04-06T01:40:59.013Z,28.23
2023-04-06T01:41:59.057Z,28.01
2023-04-06T01:42:59.106Z,27.25
2023-04-06T01:43:59.154Z,27.29
2023-04-06T01:44:59.201Z,27.06
2023-04-06T01:45:59.271Z,28.71
2023-04-06T01:46:59.338Z,26.57
2023-04-06T01:47:59.390Z,28.53
2023-04-06T01:48:59.432Z,26.13
2023-04-06T01:49:59.451Z,29.20
2023-04-06T01:50:59.501Z,29.34
2023-04-06T01:51:59.548Z,25.91
2023-04-06T01:52:59.616Z,27.54
2023-04-06T01:53:59.732Z,27.05
2023-04-06T01:54:59.704Z,26.14
2023-04-06T01:55:59.745Z,29.09
2023-04-06T01:56:59.809Z,29.03
2023-04-06T01:57:59.856Z,26.53
2023-04-06T01:58:59.941Z,27.73
2023-04-06T01:59:59.952Z,29.46
2023-04-06T02:01:00.067Z,27.50
2023-04-06T02:02:00.148Z,26.98
2023-04-06T02:03:00.172Z,28.89
2023-04-06T02:04:00.166Z,29.32
2023-04-06T02:05:00.250Z,27.74
2023-04-06T02:06:00.301Z,27.63
2023-04-06T02:07:00.330Z,25.00
2023-04-06T02:08:00.393Z,29.20
2023-04-06T02:09:00.427Z,28.83
2023-04-06T02:10:00.470Z,28.09
2023-04-06T02:11:00.629Z,27.57
2023-04-06T02:12:00.574Z,26.50
2023-04-06T02:13:00.641Z,28.00
2023-04-06T02:14:00.676Z,27.32
2023-04-06T02:15:00.736Z,27.55
2023-04-06T02:16:00.885Z,30.58
2023-04-06T02:17:00.838Z,28.80
2023-04-06T02:18:00.963Z,27.93
2023-04-06T02:19:00.962Z,30.61
2023-04-06T02:20:00.984Z,28.22
2023-04-06T02:21:01.058Z,28.86
2023-04-06T02:22:01.094Z,29.65
2023-04-06T02:23:01.128Z,26.85
2023-04-06T02:24:01.206Z,27.25
2023-04-06T02:25:01.220Z,28.94
2023-04-06T02:26:01.278Z,29.83
2023-04-06T02:27:01.358Z,28.25
2023-04-06T02:28:01.369Z,28.80
2023-04-06T02:29:01.427Z,27.03
2023-04-06T02:30:01.486Z,28.08
2023-04-06T02:31:01.519Z,27.40
2023-04-06T02:32:01.699Z,28.64
2023-04-06T02:33:01.660Z,26.82
2023-04-06T02:34:01.695Z,29.37
2023-04-06T02:35:01.751Z,29.37
2023-04-06T02:36:01.824Z,28.95
2023-04-06T02:37:01.871Z,29.68
2023-04-06T02:38:01.887Z,27.04
2023-04-06T02:39:01.939Z,26.74
2023-04-06T02:40:02.019Z,27.45
2023-04-06T02:41:02.031Z,27.19
2023-04-06T02:42:02.090Z,27.40
2023-04-06T02:43:02.137Z,26.94
2023-04-06T02:44:02.186Z,28.02
2023-04-06T02:45:02.231Z,26.03
2023-04-06T02:46:02.365Z,28.63
2023-04-06T02:47:02.334Z,28.39
2023-04-06T02:48:02.438Z,26.22
2023-04-06T02:49:02.428Z,26.03
2023-04-06T02:50:02.471Z,29.04
2023-04-06T02:51:02.510Z,26.11
2023-04-06T02:52:02.563Z,28.57
2023-04-06T02:53:02.651Z,27.23
2023-04-06T02:54:02.665Z,29.74
2023-04-06T02:55:02.713Z,31.55
2023-04-06T02:56:02.765Z,30.16
2023-04-06T02:57:02.811Z,31.37
2023-04-06T02:58:02.864Z,28.44
2023-04-06T02:59:02.933Z,28.95
2023-04-06T03:00:03.024Z,29.81
2023-04-06T03:01:03.047Z,30.86
2023-04-06T03:02:03.061Z,31.10
2023-04-06T03:03:03.237Z,30.58
2023-04-06T03:04:03.168Z,30.46
2023-04-06T03:05:03.212Z,29.37
2023-04-06T03:06:03.265Z,26.08
2023-04-06T03:07:03.348Z,26.39
2023-04-06T03:08:03.403Z,32.25
2023-04-06T03:09:03.485Z,26.84
2023-04-06T03:10:03.941Z,29.29
2023-04-06T03:11:03.524Z,29.58
2023-04-06T03:12:04.341Z,30.53
2023-04-06T03:13:03.768Z,29.23
2023-04-06T03:14:03.704Z,28.17
2023-04-06T03:15:03.733Z,32.24
2023-04-06T03:16:03.816Z,30.68
2023-04-06T03:17:03.829Z,30.91
2023-04-06T03:18:03.907Z,30.46
2023-04-06T03:19:03.933Z,29.97
2023-04-06T03:20:04.045Z,27.33
2023-04-06T03:21:04.033Z,29.47
2023-04-06T03:22:04.098Z,32.72
2023-04-06T03:23:04.148Z,30.38
2023-04-06T03:24:04.215Z,28.28
2023-04-06T03:25:04.279Z,27.81
2023-04-06T03:26:04.307Z,26.92
2023-04-06T03:27:04.370Z,29.36
2023-04-06T03:28:04.404Z,30.37
2023-04-06T03:29:04.447Z,29.75
2023-04-06T03:30:04.546Z,29.78
2023-04-06T03:31:04.559Z,28.59
2023-04-06T03:32:04.627Z,30.39
2023-04-06T03:33:04.718Z,31.21
2023-04-06T03:34:04.711Z,30.99
2023-04-06T03:35:04.776Z,28.55
2023-04-06T03:36:04.866Z,26.61
2023-04-06T03:37:10.349Z,27.24
2023-04-06T03:38:04.886Z,27.54
2023-04-06T03:39:04.891Z,28.18
2023-04-06T03:40:05.085Z,28.38
2023-04-06T03:41:04.957Z,30.63
2023-04-06T03:42:04.960Z,30.57
2023-04-06T03:43:04.940Z,28.94
2023-04-06T03:44:04.969Z,28.94
2023-04-06T03:45:04.985Z,30.12
2023-04-06T03:46:04.991Z,29.31
2023-04-06T03:47:04.984Z,28.31
2023-04-06T03:48:05.032Z,30.47
2023-04-06T03:49:05.022Z,28.59
2023-04-06T03:50:05.076Z,30.52
2023-04-06T03:51:05.021Z,27.52
2023-04-06T03:52:05.024Z,30.05
2023-04-06T03:53:05.037Z,28.32
2023-04-06T03:54:05.048Z,29.19
2023-04-06T03:55:05.070Z,27.42
2023-04-06T03:56:05.143Z,26.31
2023-04-06T03:57:05.081Z,28.49
2023-04-06T03:58:05.061Z,26.96
2023-04-06T03:59:05.142Z,26.15
2023-04-06T04:00:05.103Z,27.35
2023-04-06T04:01:05.095Z,29.94
2023-04-06T04:02:05.107Z,29.17
2023-04-06T04:03:05.223Z,30.07
2023-04-06T04:04:05.119Z,27.51
2023-04-06T04:05:05.110Z,28.80
2023-04-06T04:06:05.091Z,28.62
2023-04-06T04:07:05.104Z,31.96
2023-04-06T04:08:05.134Z,28.05
2023-04-06T04:09:05.168Z,30.07
2023-04-06T04:10:05.220Z,27.51
2023-04-06T04:11:05.267Z,30.32
2023-04-06T04:12:05.332Z,26.74
2023-04-06T04:13:05.407Z,29.70
2023-04-06T04:14:05.429Z,29.34
2023-04-06T04:15:05.487Z,32.12
2023-04-06T04:16:05.540Z,30.12
2023-04-06T04:17:05.581Z,27.70
2023-04-06T04:18:05.718Z,28.90
2023-04-06T04:19:05.851Z,28.27
2023-04-06T04:20:05.765Z,26.29
2023-04-06T04:21:05.794Z,27.64
2023-04-06T04:22:05.854Z,29.21
2023-04-06T04:23:05.894Z,28.66
2023-04-06T04:24:05.966Z,29.22
2023-04-06T04:25:05.998Z,27.49
2023-04-06T04:26:06.097Z,25.92
2023-04-06T04:27:06.152Z,31.15
2023-04-06T04:28:06.190Z,26.70
2023-04-06T04:29:06.667Z,28.64
2023-04-06T04:30:06.284Z,28.54
2023-04-06T04:31:06.314Z,29.17
2023-04-06T04:32:06.405Z,26.96
2023-04-06T04:33:06.483Z,27.23
2023-04-06T04:34:06.473Z,26.42
2023-04-06T04:35:06.570Z,27.73
2023-04-06T04:36:06.679Z,28.92
2023-04-06T04:37:06.635Z,29.79
2023-04-06T04:38:06.698Z,25.89
2023-04-06T04:39:07.119Z,27.95
2023-04-06T04:40:06.801Z,29.35
2023-04-06T04:41:06.872Z,28.42
2023-04-06T04:42:06.927Z,28.02
2023-04-06T04:43:06.977Z,29.25
2023-04-06T04:44:07.031Z,27.19
2023-04-06T04:45:07.115Z,27.11
2023-04-06T04:46:07.155Z,30.77
2023-04-06T04:47:07.196Z,27.93
2023-04-06T04:48:07.294Z,29.85
2023-04-06T04:49:07.422Z,30.09
2023-04-06T04:50:07.792Z,26.88
2023-04-06T04:51:07.418Z,28.20
2023-04-06T04:52:07.465Z,30.12
2023-04-06T04:53:07.526Z,29.91
2023-04-06T04:54:07.583Z,28.70
2023-04-06T04:55:07.643Z,28.99
2023-04-06T04:56:07.748Z,25.39
2023-04-06T04:57:07.778Z,29.08
2023-04-06T04:58:07.800Z,29.00
2023-04-06T04:59:08.036Z,28.13
2023-04-06T05:00:07.915Z,28.48
2023-04-06T05:01:08.064Z,28.74
2023-04-06T05:02:08.198Z,27.12
2023-04-06T05:03:08.133Z,27.49
2023-04-06T05:04:08.125Z,26.89
2023-04-06T05:05:08.190Z,26.16
2023-04-06T05:06:08.274Z,28.21
2023-04-06T05:07:08.298Z,27.56
2023-04-06T05:08:08.351Z,31.87
2023-04-06T05:09:08.621Z,26.62
2023-04-06T05:10:08.608Z,30.30
2023-04-06T05:11:08.515Z,27.63
2023-04-06T05:12:08.596Z,29.08
2023-04-06T05:13:08.622Z,27.57
2023-04-06T05:14:08.693Z,28.07
2023-04-06T05:15:08.733Z,26.99
2023-04-06T05:16:08.883Z,28.33
2023-04-06T05:17:09.010Z,29.36
2023-04-06T05:18:08.930Z,27.56
2023-04-06T05:19:09.318Z,26.28
2023-04-06T05:20:09.002Z,27.50
2023-04-06T05:21:09.062Z,26.32
2023-04-06T05:22:09.133Z,29.73
2023-04-06T05:23:09.163Z,28.12
2023-04-06T05:24:09.222Z,27.78
2023-04-06T05:25:09.275Z,26.10
2023-04-06T05:26:09.365Z,27.44
2023-04-06T05:27:09.384Z,25.78
2023-04-06T05:28:09.446Z,30.77
2023-04-06T05:29:09.944Z,29.78
2023-04-06T05:30:09.556Z,28.10
2023-04-06T05:31:09.771Z,29.22
2023-04-06T05:32:09.655Z,27.41
2023-04-06T05:33:09.782Z,28.41
2023-04-06T05:34:09.784Z,26.48
2023-04-06T05:35:09.824Z,28.67
2023-04-06T05:36:09.905Z,27.72
2023-04-06T05:37:09.919Z,27.29
2023-04-06T05:38:09.973Z,27.76
2023-04-06T05:39:10.224Z,28.52
2023-04-06T05:40:10.080Z,27.45
2023-04-06T05:41:10.171Z,28.08
2023-04-06T05:42:10.193Z,25.82
2023-04-06T05:43:10.253Z,27.11
2023-04-06T05:44:10.305Z,29.51
2023-04-06T05:45:10.363Z,28.83
2023-04-06T05:46:10.506Z,27.95
2023-04-06T05:47:10.485Z,28.27
2023-04-06T05:48:10.614Z,28.45
2023-04-06T05:49:10.915Z,27.56
2023-04-06T05:50:10.677Z,27.23
2023-04-06T05:51:10.669Z,31.15
2023-04-06T05:52:10.688Z,29.23
2023-04-06T05:53:10.788Z,30.06
2023-04-06T05:54:10.794Z,28.03
2023-04-06T05:55:10.834Z,26.49
2023-04-06T05:56:10.918Z,27.88
2023-04-06T05:57:10.938Z,27.72
2023-04-06T05:58:11.009Z,29.11
2023-04-06T05:59:11.306Z,28.20
2023-04-06T06:00:11.123Z,29.87
2023-04-06T06:01:11.160Z,27.58
2023-04-06T06:02:11.249Z,27.96
2023-04-06T06:03:11.272Z,28.93
2023-04-06T06:04:11.326Z,31.09
2023-04-06T06:05:11.450Z,31.67
2023-04-06T06:06:11.437Z,29.33
2023-04-06T06:07:11.490Z,30.47
2023-04-06T06:08:11.544Z,31.24
2023-04-06T06:09:11.598Z,34.13
2023-04-06T06:10:11.636Z,31.87
2023-04-06T06:11:11.692Z,34.14
2023-04-06T06:12:14.493Z,28.80
2023-04-06T06:13:11.771Z,36.88
2023-04-06T06:14:11.742Z,31.65
2023-04-06T06:15:11.762Z,30.34
2023-04-06T06:16:11.776Z,30.23
2023-04-06T06:17:11.760Z,30.81
2023-04-06T06:18:11.851Z,28.57
2023-04-06T06:19:11.787Z,30.18
2023-04-06T06:20:11.791Z,27.74
2023-04-06T06:21:11.831Z,30.08
2023-04-06T06:22:11.799Z,29.80
2023-04-06T06:23:11.795Z,29.52
2023-04-06T06:24:11.809Z,28.03
2023-04-06T06:25:11.820Z,30.83
2023-04-06T06:26:11.825Z,29.27
2023-04-06T06:27:11.840Z,27.53
2023-04-06T06:28:12.049Z,28.90
2023-04-06T06:29:11.858Z,29.21
2023-04-06T06:30:11.873Z,30.66
2023-04-06T06:31:12.015Z,28.19
2023-04-06T06:32:11.895Z,28.89
2023-04-06T06:33:11.894Z,26.61
2023-04-06T06:34:11.897Z,30.40
2023-04-06T06:35:11.896Z,29.79
2023-04-06T06:36:11.924Z,28.96
2023-04-06T06:37:11.947Z,31.04
2023-04-06T06:38:11.938Z,30.41
2023-04-06T06:39:12.109Z,30.78
2023-04-06T06:40:11.970Z,30.90
2023-04-06T06:41:11.962Z,30.85
2023-04-06T06:42:14.132Z,32.54
2023-04-06T06:43:11.970Z,33.09
2023-04-06T06:44:12.092Z,34.43
2023-04-06T06:45:12.032Z,32.93
2023-04-06T06:46:12.014Z,30.74
2023-04-06T06:47:11.997Z,31.90
2023-04-06T06:48:12.046Z,28.94
2023-04-06T06:49:11.987Z,31.01
2023-04-06T06:50:11.989Z,29.68
2023-04-06T06:51:11.992Z,31.05
2023-04-06T06:52:11.993Z,31.13
2023-04-06T06:53:12.041Z,30.64
2023-04-06T06:54:12.113Z,31.20
2023-04-06T06:55:12.023Z,30.21
2023-04-06T06:56:11.997Z,32.46
2023-04-06T06:57:12.016Z,32.98
2023-04-06T06:58:12.015Z,32.71
2023-04-06T06:59:12.201Z,30.42
2023-04-06T07:00:13.256Z,31.41
2023-04-06T07:01:12.237Z,34.48
2023-04-06T07:02:12.285Z,30.91
2023-04-06T07:03:12.315Z,30.37
2023-04-06T07:04:12.475Z,31.34
2023-04-06T07:05:26.141Z,30.94
2023-04-06T07:06:12.433Z,31.25
2023-04-06T07:07:12.413Z,31.82
2023-04-06T07:08:12.416Z,31.42
2023-04-06T07:09:12.447Z,33.50
2023-04-06T07:10:12.448Z,33.39
2023-04-06T07:11:12.417Z,33.97
2023-04-06T07:12:12.420Z,34.36
2023-04-06T07:13:12.430Z,32.50
2023-04-06T07:14:12.455Z,33.27
2023-04-06T07:15:12.465Z,33.20
2023-04-06T07:16:12.469Z,32.94
2023-04-06T07:17:12.946Z,31.82
2023-04-06T07:18:13.041Z,32.44
2023-04-06T07:19:12.471Z,35.59
2023-04-06T07:20:12.480Z,33.51
2023-04-06T07:21:12.667Z,36.38
2023-04-06T07:22:12.467Z,34.58
2023-04-06T07:23:12.486Z,33.89
2023-04-06T07:24:12.481Z,35.83
2023-04-06T07:25:12.563Z,33.20
2023-04-06T07:26:12.516Z,37.16
2023-04-06T07:27:12.515Z,34.48
2023-04-06T07:28:12.528Z,35.91
2023-04-06T07:29:12.544Z,33.96
2023-04-06T07:30:12.556Z,35.84
2023-04-06T07:31:12.546Z,33.97
2023-04-06T07:32:12.865Z,36.26
2023-04-06T07:33:12.565Z,34.74
2023-04-06T07:34:12.612Z,33.94
2023-04-06T07:35:12.580Z,36.28
2023-04-06T07:36:12.589Z,34.47
2023-04-06T07:37:12.597Z,33.83
2023-04-06T07:38:12.616Z,34.83
2023-04-06T07:39:12.631Z,34.24
2023-04-06T07:40:12.627Z,34.51
2023-04-06T07:41:12.747Z,33.47
2023-04-06T07:42:12.708Z,36.48
2023-04-06T07:43:12.750Z,37.46
2023-04-06T07:44:12.796Z,35.55
2023-04-06T07:45:12.844Z,36.90
2023-04-06T07:46:12.944Z,39.03
2023-04-06T07:47:12.928Z,37.95
2023-04-06T07:48:12.954Z,36.34
2023-04-06T07:49:12.991Z,36.06
2023-04-06T07:50:13.044Z,37.06
2023-04-06T07:51:13.074Z,37.61
2023-04-06T07:52:13.143Z,38.11
2023-04-06T07:53:13.166Z,36.33
2023-04-06T07:54:13.204Z,35.86
2023-04-06T07:55:13.257Z,37.92
2023-04-06T07:56:13.312Z,35.65
2023-04-06T07:57:13.373Z,37.57
2023-04-06T07:58:13.400Z,36.05
2023-04-06T07:59:13.497Z,39.94
2023-04-06T08:00:13.499Z,36.08
2023-04-06T08:01:13.532Z,37.33
2023-04-06T08:02:13.624Z,38.36
2023-04-06T08:03:13.756Z,36.41
2023-04-06T08:04:13.819Z,37.65
2023-04-06T08:05:13.729Z,36.82
2023-04-06T08:06:13.761Z,37.97
2023-04-06T08:07:13.812Z,36.45
2023-04-06T08:08:13.856Z,36.71
2023-04-06T08:09:13.896Z,36.23
2023-04-06T08:10:13.965Z,37.33
2023-04-06T08:11:13.987Z,37.17
2023-04-06T08:12:14.039Z,36.39
2023-04-06T08:13:14.108Z,38.04
2023-04-06T08:14:14.126Z,36.54
2023-04-06T08:15:14.191Z,38.26
2023-04-06T08:16:14.348Z,37.78
2023-04-06T08:17:14.278Z,38.41
2023-04-06T08:18:14.317Z,38.00
2023-04-06T08:19:14.350Z,39.52
2023-04-06T08:20:14.394Z,38.76
2023-04-06T08:21:14.429Z,38.28
2023-04-06T08:22:14.477Z,37.04
2023-04-06T08:23:14.527Z,41.62
2023-04-06T08:24:14.570Z,40.88
2023-04-06T08:25:14.606Z,39.61
2023-04-06T08:26:14.648Z,39.65
2023-04-06T08:27:14.705Z,38.96
2023-04-06T08:28:14.739Z,39.32
2023-04-06T08:29:14.788Z,38.33
2023-04-06T08:30:14.800Z,39.48
2023-04-06T08:31:14.877Z,39.79
2023-04-06T08:32:14.886Z,37.81
2023-04-06T08:33:14.938Z,40.29
2023-04-06T08:34:15.279Z,38.76
2023-04-06T08:35:15.015Z,39.14
2023-04-06T08:36:15.062Z,39.68
2023-04-06T08:37:15.088Z,41.17
2023-04-06T08:38:15.136Z,41.07
2023-04-06T08:39:15.176Z,42.82
2023-04-06T08:40:15.220Z,38.97
2023-04-06T08:41:15.265Z,40.54
2023-04-06T08:42:15.299Z,41.92
2023-04-06T08:43:15.361Z,39.90
2023-04-06T08:44:15.383Z,40.79
2023-04-06T08:45:15.452Z,39.19
2023-04-06T08:46:15.540Z,42.98
2023-04-06T08:47:15.510Z,38.32
2023-04-06T08:48:15.543Z,41.36
2023-04-06T08:49:15.590Z,39.69
2023-04-06T08:50:15.625Z,39.68
2023-04-06T08:51:15.667Z,39.81
2023-04-06T08:52:15.704Z,39.07
2023-04-06T08:53:15.741Z,41.90
2023-04-06T08:54:15.793Z,43.05
2023-04-06T08:55:15.833Z,40.37
2023-04-06T08:56:15.875Z,40.75
2023-04-06T08:57:15.921Z,39.62
2023-04-06T08:58:27.460Z,42.27
2023-04-06T08:59:16.007Z,42.52
2023-04-06T09:00:15.969Z,43.19
2023-04-06T09:01:16.033Z,41.51
2023-04-06T09:02:16.012Z,41.18
2023-04-06T09:03:16.148Z,42.45
2023-04-06T09:04:16.421Z,42.93
2023-04-06T09:05:16.003Z,42.79
2023-04-06T09:06:16.024Z,42.39
2023-04-06T09:07:16.050Z,40.74
2023-04-06T09:08:16.021Z,42.04
2023-04-06T09:09:16.020Z,41.31
2023-04-06T09:10:16.025Z,40.42
2023-04-06T09:11:16.030Z,46.35
2023-04-06T09:12:16.044Z,43.69
2023-04-06T09:13:16.206Z,41.12
2023-04-06T09:14:16.064Z,41.19
2023-04-06T09:15:16.058Z,43.31
2023-04-06T09:16:16.095Z,39.34
2023-04-06T09:17:16.100Z,41.19
2023-04-06T09:18:16.075Z,40.36
2023-04-06T09:19:16.084Z,40.21
2023-04-06T09:20:16.089Z,42.32
2023-04-06T09:21:16.097Z,41.11
2023-04-06T09:22:16.122Z,41.22
2023-04-06T09:23:16.187Z,41.73
2023-04-06T09:24:16.201Z,40.28
2023-04-06T09:25:16.238Z,42.49
2023-04-06T09:26:16.283Z,41.83
2023-04-06T09:27:16.318Z,40.28
2023-04-06T09:28:16.370Z,38.34
2023-04-06T09:29:16.404Z,39.91
2023-04-06T09:30:16.433Z,39.74
2023-04-06T09:31:16.538Z,39.91
2023-04-06T09:32:16.507Z,38.63
2023-04-06T09:33:16.591Z,39.93
2023-04-06T09:34:16.598Z,38.90
2023-04-06T09:35:16.643Z,43.71
2023-04-06T09:36:16.791Z,40.27
2023-04-06T09:37:16.728Z,39.80
2023-04-06T09:38:16.734Z,40.12
2023-04-06T09:39:16.784Z,40.15
2023-04-06T09:40:16.809Z,42.55
2023-04-06T09:41:16.843Z,42.23
2023-04-06T09:42:16.898Z,41.79
2023-04-06T09:43:16.957Z,43.59
2023-04-06T09:44:16.965Z,43.00
2023-04-06T09:45:17.004Z,43.09
2023-04-06T09:46:17.079Z,42.25
2023-04-06T09:47:17.127Z,43.13
2023-04-06T09:48:17.160Z,42.12
2023-04-06T09:49:17.284Z,41.96
2023-04-06T09:50:17.408Z,42.12
2023-04-06T09:51:17.214Z,41.62
2023-04-06T09:52:17.274Z,40.88
2023-04-06T09:53:17.301Z,43.37
2023-04-06T09:54:17.319Z,41.03
2023-04-06T09:55:17.358Z,40.46
2023-04-06T09:56:17.396Z,40.32
2023-04-06T09:57:17.491Z,40.63
2023-04-06T09:58:17.554Z,40.16
2023-04-06T09:59:17.528Z,40.58
2023-04-06T10:00:17.546Z,39.54
2023-04-06T10:01:18.494Z,41.34
2023-04-06T10:02:17.628Z,40.84
2023-04-06T10:03:17.702Z,40.57
2023-04-06T10:04:17.755Z,40.08
2023-04-06T10:05:17.756Z,40.13
2023-04-06T10:06:17.760Z,39.78
2023-04-06T10:07:17.804Z,38.63
2023-04-06T10:08:17.835Z,40.51
2023-04-06T10:09:17.877Z,40.36
2023-04-06T10:10:17.944Z,40.57
2023-04-06T10:11:17.944Z,40.23
2023-04-06T10:12:17.988Z,40.38
2023-04-06T10:13:18.030Z,39.83
2023-04-06T10:14:18.060Z,41.03
2023-04-06T10:15:20.255Z,38.64
2023-04-06T10:16:18.106Z,38.97
2023-04-06T10:17:18.085Z,39.47
2023-04-06T10:18:18.091Z,40.14
2023-04-06T10:19:18.111Z,40.85
2023-04-06T10:20:18.204Z,42.59
2023-04-06T10:21:19.782Z,41.42
2023-04-06T10:22:18.104Z,41.70
2023-04-06T10:23:18.102Z,41.53
2023-04-06T10:24:18.100Z,42.07
2023-04-06T10:25:18.101Z,41.66
2023-04-06T10:26:18.140Z,43.60
2023-04-06T10:27:18.092Z,40.93
2023-04-06T10:28:18.101Z,40.63
2023-04-06T10:29:18.094Z,42.19
2023-04-06T10:30:18.104Z,42.64
2023-04-06T10:31:18.143Z,40.46
2023-04-06T10:32:18.205Z,41.15
2023-04-06T10:33:18.128Z,41.79
2023-04-06T10:34:18.130Z,42.86
2023-04-06T10:35:18.141Z,40.89
2023-04-06T10:36:18.216Z,42.56
2023-04-06T10:37:18.844Z,42.24
2023-04-06T10:38:18.147Z,41.49
2023-04-06T10:39:18.149Z,41.65
2023-04-06T10:40:18.207Z,41.14
2023-04-06T10:41:18.160Z,43.14
2023-04-06T10:42:18.160Z,41.16
2023-04-06T10:43:18.229Z,41.33
2023-04-06T10:44:18.171Z,44.06
2023-04-06T10:45:18.176Z,41.43
2023-04-06T10:46:18.347Z,43.03
2023-04-06T10:47:18.170Z,43.24
2023-04-06T10:48:18.227Z,41.15
2023-04-06T10:49:18.169Z,43.34
2023-04-06T10:50:18.171Z,44.52
2023-04-06T10:51:18.187Z,42.84
2023-04-06T10:52:18.175Z,44.04
2023-04-06T10:53:18.214Z,44.39
2023-04-06T10:54:18.193Z,42.30
2023-04-06T10:55:18.219Z,43.07
2023-04-06T10:56:18.254Z,43.32
2023-04-06T10:57:18.315Z,42.65
2023-04-06T10:58:18.332Z,41.48
2023-04-06T10:59:18.492Z,44.12
2023-04-06T11:00:18.389Z,42.26
2023-04-06T11:01:18.527Z,41.98
2023-04-06T11:02:18.469Z,44.21
2023-04-06T11:03:18.478Z,41.51
2023-04-06T11:04:18.532Z,43.80
2023-04-06T11:05:18.552Z,43.49
2023-04-06T11:06:18.594Z,44.56
2023-04-06T11:07:18.614Z,42.70
2023-04-06T11:08:18.655Z,41.84
2023-04-06T11:09:18.706Z,42.99
2023-04-06T11:10:20.914Z,42.57
2023-04-06T11:11:18.728Z,44.21
2023-04-06T11:12:18.718Z,44.97
2023-04-06T11:13:18.723Z,43.32
2023-04-06T11:14:18.727Z,41.54
2023-04-06T11:15:18.737Z,39.82
2023-04-06T11:16:18.784Z,40.61
2023-04-06T11:17:18.739Z,40.62
2023-04-06T11:18:18.737Z,42.43
2023-04-06T11:19:18.751Z,42.49
2023-04-06T11:20:18.742Z,43.06
2023-04-06T11:21:18.747Z,42.54
2023-04-06T11:22:18.747Z,40.02
2023-04-06T11:23:18.754Z,38.88
2023-04-06T11:24:18.756Z,39.62
2023-04-06T11:25:18.791Z,41.54
2023-04-06T11:26:18.766Z,41.95
2023-04-06T11:27:18.777Z,42.81
2023-04-06T11:28:18.780Z,40.96
2023-04-06T11:29:18.792Z,41.24
2023-04-06T11:30:18.800Z,42.04
2023-04-06T11:31:18.836Z,40.63
2023-04-06T11:32:18.828Z,40.97
2023-04-06T11:33:18.817Z,40.35
2023-04-06T11:34:18.858Z,40.57
2023-04-06T11:35:18.838Z,40.68
2023-04-06T11:36:18.966Z,40.45
2023-04-06T11:37:18.867Z,42.16
2023-04-06T11:38:18.861Z,38.43
2023-04-06T11:39:18.874Z,40.29
2023-04-06T11:40:18.860Z,40.70
2023-04-06T11:41:18.902Z,41.45
2023-04-06T11:42:18.902Z,40.31
2023-04-06T11:43:18.895Z,41.01
2023-04-06T11:44:18.898Z,41.87
2023-04-06T11:45:18.906Z,40.48
2023-04-06T11:46:18.950Z,39.38
2023-04-06T11:47:18.911Z,40.21
2023-04-06T11:48:18.916Z,39.57
2023-04-06T11:49:18.962Z,41.01
2023-04-06T11:50:18.924Z,43.05
2023-04-06T11:51:18.906Z,42.85
2023-04-06T11:52:18.926Z,40.67
2023-04-06T11:53:18.916Z,41.28
2023-04-06T11:54:18.953Z,38.97
2023-04-06T11:55:19.055Z,40.40
2023-04-06T11:56:19.016Z,39.02
2023-04-06T11:57:19.067Z,39.28
2023-04-06T11:58:19.086Z,39.56
2023-04-06T11:59:19.173Z,43.30
2023-04-06T12:00:19.169Z,38.11
2023-04-06T12:01:19.185Z,39.39
2023-04-06T12:02:19.252Z,37.49
2023-04-06T12:03:19.378Z,39.27
2023-04-06T12:04:19.338Z,37.06
2023-04-06T12:05:19.321Z,37.11
2023-04-06T12:06:19.353Z,38.85
2023-04-06T12:07:19.386Z,37.08
2023-04-06T12:08:19.422Z,38.67
2023-04-06T12:09:19.506Z,40.00
2023-04-06T12:10:19.492Z,39.73
2023-04-06T12:11:19.523Z,41.38
2023-04-06T12:12:19.564Z,38.31
2023-04-06T12:13:19.625Z,37.96
2023-04-06T12:14:19.627Z,39.60
2023-04-06T12:15:19.655Z,39.60
2023-04-06T12:16:19.720Z,38.54
2023-04-06T12:17:19.729Z,36.27
2023-04-06T12:18:19.760Z,40.70
2023-04-06T12:19:19.802Z,40.26
2023-04-06T12:20:26.434Z,38.50
2023-04-06T12:21:19.836Z,38.78
2023-04-06T12:22:19.836Z,39.23
2023-04-06T12:23:19.844Z,39.79
2023-04-06T12:24:19.856Z,39.77
2023-04-06T12:25:19.881Z,41.09
2023-04-06T12:26:19.855Z,38.95
2023-04-06T12:27:19.856Z,40.64
2023-04-06T12:28:19.861Z,38.87
2023-04-06T12:29:19.894Z,39.01
2023-04-06T12:30:19.872Z,37.48
2023-04-06T12:31:19.962Z,37.22
2023-04-06T12:32:19.871Z,36.14
2023-04-06T12:33:19.994Z,37.44
2023-04-06T12:34:19.883Z,37.47
2023-04-06T12:35:19.884Z,38.36
2023-04-06T12:36:20.165Z,38.04
2023-04-06T12:37:19.891Z,39.30
2023-04-06T12:38:19.904Z,41.58
2023-04-06T12:39:21.295Z,38.53
2023-04-06T12:40:19.922Z,41.95
2023-04-06T12:41:19.907Z,40.11
2023-04-06T12:42:19.910Z,39.62
2023-04-06T12:43:19.934Z,37.42
2023-04-06T12:44:19.924Z,37.86
2023-04-06T12:45:19.958Z,37.78
2023-04-06T12:46:19.952Z,34.42
2023-04-06T12:47:19.926Z,37.77
2023-04-06T12:48:19.933Z,38.74
2023-04-06T12:49:19.943Z,37.98
2023-04-06T12:50:19.940Z,38.13
2023-04-06T12:51:19.953Z,37.60
2023-04-06T12:52:19.932Z,38.48
2023-04-06T12:53:19.933Z,37.97
2023-04-06T12:54:19.953Z,37.54